Time;durP1;ratioP1;P1;durP2;ratioP2;P2;SDS_P1;SDS_P2;PMS_P1;PMS_P2;Temp;Humidity;BMP_temperature;BMP_pressure;BME280_temperature;BME280_humidity;BME280_pressure;Samples;Min_cycle;Max_cycle;Signal;HPM_P1;HPM_P2
2022/04/15 00:00:41;;;;;;;11.88;9.48;;;;;;;;;;5047302;28;20038;-66
2022/04/15 00:03:07;;;;;;;13.80;9.63;;;;;;;;;;5063751;28;20049;-66
2022/04/15 00:05:37;;;;;;;20.35;10.43;;;;;;;;;;5050813;28;20037;-66
2022/04/15 00:08:06;;;;;;;18.75;9.75;;;;;;;;;;5048152;28;20048;-66
2022/04/15 00:10:33;;;;;;;17.13;9.73;;;;;;;;;;5048139;28;20049;-66
2022/04/15 00:12:59;;;;;;;16.27;9.82;;;;;;;;;;5046123;28;20052;-66
2022/04/15 00:15:27;;;;;;;17.95;9.80;;;;;;;;;;5047428;28;20083;-66
2022/04/15 00:17:54;;;;;;;21.08;9.52;;;;;;;;;;5052539;28;20049;-66
2022/04/15 00:20:20;;;;;;;15.65;8.77;;;;;;;;;;5053013;28;20044;-66
2022/04/15 00:22:46;;;;;;;16.63;9.85;;;;;;;;;;5050476;28;20048;-66
2022/04/15 00:25:12;;;;;;;14.40;8.93;;;;;;;;;;5054279;28;20048;-66
2022/04/15 00:27:39;;;;;;;16.42;9.45;;;;;;;;;;5036114;28;20056;-66
2022/04/15 00:30:06;;;;;;;14.85;9.15;;;;;;;;;;5053720;28;20033;-66
2022/04/15 00:32:32;;;;;;;16.55;8.63;;;;;;;;;;5050470;28;20037;-66
2022/04/15 00:34:58;;;;;;;14.70;8.60;;;;;;;;;;5070176;28;20036;-66
2022/04/15 00:37:24;;;;;;;17.67;9.68;;;;;;;;;;5051036;28;20037;-66
2022/04/15 00:39:50;;;;;;;14.20;9.00;;;;;;;;;;5051459;28;20515;-66
2022/04/15 00:42:16;;;;;;;19.00;8.95;;;;;;;;;;5051536;28;20049;-66
2022/04/15 00:44:43;;;;;;;18.85;9.45;;;;;;;;;;5053782;28;20041;-66
2022/04/15 00:47:15;;;;;;;18.58;8.35;;;;;;;;;;5053324;28;20540;-66
2022/04/15 00:49:41;;;;;;;18.05;9.88;;;;;;;;;;5049466;28;20049;-66
2022/04/15 00:52:11;;;;;;;13.88;8.70;;;;;;;;;;5067608;28;20045;-66
2022/04/15 00:54:39;;;;;;;15.98;9.13;;;;;;;;;;5047571;28;20041;-66
2022/04/15 00:57:05;;;;;;;13.82;8.18;;;;;;;;;;5051467;28;20048;-66
2022/04/15 00:59:32;;;;;;;15.05;8.50;;;;;;;;;;5053718;28;20128;-66
2022/04/15 01:01:59;;;;;;;12.27;8.02;;;;;;;;;;5046924;28;20079;-66
2022/04/15 01:04:25;;;;;;;16.48;8.57;;;;;;;;;;5053527;28;20401;-66
2022/04/15 01:06:53;;;;;;;11.20;7.43;;;;;;;;;;5052624;28;20080;-66
2022/04/15 01:09:21;;;;;;;17.20;8.18;;;;;;;;;;5053245;28;20040;-66
2022/04/15 01:11:47;;;;;;;11.88;7.57;;;;;;;;;;5052656;28;20040;-66
2022/04/15 01:14:14;;;;;;;14.50;7.88;;;;;;;;;;5053802;28;20424;-66
2022/04/15 01:16:40;;;;;;;13.10;8.55;;;;;;;;;;5052742;28;20115;-66
2022/04/15 01:19:06;;;;;;;12.18;8.73;;;;;;;;;;5053343;28;20044;-66
2022/04/15 01:21:35;;;;;;;14.65;8.05;;;;;;;;;;5053611;28;20377;-66
2022/04/15 01:24:01;;;;;;;19.90;8.27;;;;;;;;;;5052580;28;20033;-66
2022/04/15 01:26:27;;;;;;;10.65;7.68;;;;;;;;;;5052169;28;20436;-66
2022/04/15 01:28:53;;;;;;;12.25;8.02;;;;;;;;;;5052761;28;20417;-66
2022/04/15 01:31:19;;;;;;;16.73;8.07;;;;;;;;;;5053511;28;20128;-66
2022/04/15 01:33:45;;;;;;;13.18;7.35;;;;;;;;;;5052825;28;20049;-65
2022/04/15 01:36:12;;;;;;;13.45;7.97;;;;;;;;;;5052526;28;20604;-66
2022/04/15 01:38:39;;;;;;;12.50;7.90;;;;;;;;;;5052496;28;20579;-66
2022/04/15 01:41:05;;;;;;;12.32;8.02;;;;;;;;;;5054049;28;20036;-66
2022/04/15 01:43:31;;;;;;;15.55;8.55;;;;;;;;;;5052658;28;20075;-66
2022/04/15 01:45:57;;;;;;;16.75;8.43;;;;;;;;;;5052105;28;20045;-66
2022/04/15 01:48:23;;;;;;;15.23;7.32;;;;;;;;;;5052481;28;20045;-66
2022/04/15 01:50:49;;;;;;;14.65;7.88;;;;;;;;;;5052793;28;20049;-66
2022/04/15 01:53:15;;;;;;;15.80;7.85;;;;;;;;;;5051172;28;20389;-66
2022/04/15 01:55:41;;;;;;;13.32;8.38;;;;;;;;;;5051628;28;20040;-66
2022/04/15 01:58:07;;;;;;;13.88;7.68;;;;;;;;;;5051990;28;20049;-66
2022/04/15 02:00:33;;;;;;;14.05;7.70;;;;;;;;;;5053163;28;20040;-66
2022/04/15 02:02:59;;;;;;;16.20;8.85;;;;;;;;;;5035766;28;20072;-66
2022/04/15 02:05:25;;;;;;;12.52;8.23;;;;;;;;;;5052033;28;20041;-66
2022/04/15 02:07:51;;;;;;;11.02;8.50;;;;;;;;;;5051778;28;20045;-66
2022/04/15 02:10:17;;;;;;;15.32;8.40;;;;;;;;;;5051602;28;20516;-66
2022/04/15 02:12:43;;;;;;;14.55;8.20;;;;;;;;;;5051899;28;20048;-66
2022/04/15 02:15:09;;;;;;;13.45;8.35;;;;;;;;;;5051957;28;20045;-66
2022/04/15 02:17:35;;;;;;;13.93;8.25;;;;;;;;;;5052810;28;20119;-66
2022/04/15 02:20:02;;;;;;;16.02;9.25;;;;;;;;;;5051404;28;20128;-66
2022/04/15 02:22:28;;;;;;;15.20;8.57;;;;;;;;;;5053116;28;20041;-66
2022/04/15 02:24:54;;;;;;;12.85;7.90;;;;;;;;;;5050778;28;20045;-66
2022/04/15 02:27:21;;;;;;;12.50;8.10;;;;;;;;;;5051841;28;20062;-66
2022/04/15 02:29:47;;;;;;;13.88;8.38;;;;;;;;;;5039412;28;20455;-66
2022/04/15 02:32:13;;;;;;;12.68;7.95;;;;;;;;;;5053371;28;20036;-65
2022/04/15 02:34:39;;;;;;;12.88;8.00;;;;;;;;;;5050888;28;20531;-66
2022/04/15 02:37:06;;;;;;;14.65;8.68;;;;;;;;;;5051313;28;20106;-66
2022/04/15 02:39:35;;;;;;;13.85;8.63;;;;;;;;;;5051872;28;20044;-66
2022/04/15 02:42:01;;;;;;;14.20;8.52;;;;;;;;;;5051125;28;20051;-66
2022/04/15 02:44:28;;;;;;;13.20;8.80;;;;;;;;;;5067990;28;20068;-66
2022/04/15 02:46:57;;;;;;;14.23;8.60;;;;;;;;;;5051549;28;20059;-66
2022/04/15 02:49:23;;;;;;;15.73;9.35;;;;;;;;;;5051914;28;20064;-66
2022/04/15 02:51:49;;;;;;;15.90;9.25;;;;;;;;;;5051702;28;20066;-66
2022/04/15 02:54:15;;;;;;;11.73;8.80;;;;;;;;;;5051576;28;20044;-66
2022/04/15 02:56:41;;;;;;;18.08;9.32;;;;;;;;;;5034809;28;20044;-66
2022/04/15 02:59:07;;;;;;;15.38;8.90;;;;;;;;;;5051787;28;20044;-66
2022/04/15 03:01:33;;;;;;;13.65;10.05;;;;;;;;;;5050718;28;20127;-66
2022/04/15 03:03:59;;;;;;;15.52;10.15;;;;;;;;;;5051879;28;20040;-66
2022/04/15 03:06:25;;;;;;;15.75;10.98;;;;;;;;;;5050871;28;20497;-66
2022/04/15 03:08:51;;;;;;;18.45;9.70;;;;;;;;;;5050556;28;20392;-66
2022/04/15 03:11:17;;;;;;;16.80;9.88;;;;;;;;;;5051344;28;20048;-66
2022/04/15 03:13:44;;;;;;;16.73;9.95;;;;;;;;;;5051505;28;20120;-66
2022/04/15 03:16:11;;;;;;;14.77;10.40;;;;;;;;;;5064786;28;20052;-66
2022/04/15 03:18:37;;;;;;;15.02;9.63;;;;;;;;;;5051100;28;20444;-66
2022/04/15 03:21:03;;;;;;;14.60;9.90;;;;;;;;;;5050922;28;20090;-66
2022/04/15 03:23:29;;;;;;;13.45;9.05;;;;;;;;;;5050642;28;20048;-66
2022/04/15 03:25:55;;;;;;;11.48;9.32;;;;;;;;;;5050095;28;20486;-66
2022/04/15 03:28:21;;;;;;;17.80;8.80;;;;;;;;;;5050450;28;20401;-65
2022/04/15 03:30:48;;;;;;;13.85;9.30;;;;;;;;;;5050202;28;20047;-66
2022/04/15 03:33:14;;;;;;;12.60;9.05;;;;;;;;;;5052002;28;20083;-66
2022/04/15 03:35:40;;;;;;;12.20;8.07;;;;;;;;;;5050569;28;20051;-66
2022/04/15 03:38:06;;;;;;;11.93;7.80;;;;;;;;;;5050229;28;20432;-66
2022/04/15 03:40:32;;;;;;;14.20;8.07;;;;;;;;;;5048997;28;20044;-66
2022/04/15 03:42:58;;;;;;;11.27;8.32;;;;;;;;;;5078625;28;20049;-66
2022/04/15 03:45:25;;;;;;;12.57;8.35;;;;;;;;;;5050203;28;20049;-66
2022/04/15 03:47:54;;;;;;;15.50;9.13;;;;;;;;;;5050425;28;20041;-66
2022/04/15 03:50:20;;;;;;;12.30;7.63;;;;;;;;;;5049086;28;20114;-66
2022/04/15 03:52:47;;;;;;;12.75;8.82;;;;;;;;;;5051289;28;20037;-66
2022/04/15 03:55:14;;;;;;;15.23;8.18;;;;;;;;;;5049057;28;20028;-66
2022/04/15 03:57:40;;;;;;;13.57;8.23;;;;;;;;;;5050145;28;20037;-66
2022/04/15 04:00:07;;;;;;;9.32;7.55;;;;;;;;;;5048027;28;20127;-66
2022/04/15 04:02:33;;;;;;;9.18;8.18;;;;;;;;;;5051979;28;20127;-66
2022/04/15 04:04:59;;;;;;;13.30;8.55;;;;;;;;;;5049956;28;20617;-66
2022/04/15 04:07:25;;;;;;;11.63;7.55;;;;;;;;;;5049917;28;20489;-66
2022/04/15 04:09:51;;;;;;;15.48;8.45;;;;;;;;;;5051100;28;20037;-66
2022/04/15 04:12:17;;;;;;;14.10;8.00;;;;;;;;;;5049887;28;20116;-66
2022/04/15 04:14:43;;;;;;;13.65;7.40;;;;;;;;;;5050508;28;20041;-66
2022/04/15 04:17:09;;;;;;;11.35;8.10;;;;;;;;;;5051390;28;20041;-66
2022/04/15 04:19:36;;;;;;;12.45;8.13;;;;;;;;;;5050290;28;20103;-66
2022/04/15 04:22:03;;;;;;;10.38;7.65;;;;;;;;;;5055910;28;20040;-66
2022/04/15 04:24:29;;;;;;;12.30;7.60;;;;;;;;;;5062491;28;20045;-66
2022/04/15 04:26:55;;;;;;;11.48;7.80;;;;;;;;;;5050576;28;20033;-66
2022/04/15 04:29:21;;;;;;;11.82;7.68;;;;;;;;;;5051277;28;20052;-66
2022/04/15 04:31:47;;;;;;;15.60;7.60;;;;;;;;;;5051303;28;20393;-66
2022/04/15 04:34:13;;;;;;;10.48;7.07;;;;;;;;;;5049418;28;20037;-66
2022/04/15 04:36:39;;;;;;;12.02;8.05;;;;;;;;;;5049297;28;20078;-66
2022/04/15 04:39:08;;;;;;;10.35;7.70;;;;;;;;;;5050518;28;20045;-66
2022/04/15 04:41:34;;;;;;;10.35;6.70;;;;;;;;;;5047685;28;20047;-65
2022/04/15 04:44:00;;;;;;;9.95;7.22;;;;;;;;;;5049687;28;20056;-66
2022/04/15 04:46:26;;;;;;;10.98;7.90;;;;;;;;;;5048747;28;20055;-66
2022/04/15 04:48:52;;;;;;;10.10;7.50;;;;;;;;;;5049018;28;20041;-66
2022/04/15 04:51:18;;;;;;;8.88;7.45;;;;;;;;;;5046545;28;20171;-66
2022/04/15 04:53:44;;;;;;;10.15;7.75;;;;;;;;;;5049984;28;20086;-66
2022/04/15 04:56:10;;;;;;;11.77;7.85;;;;;;;;;;5050631;28;20033;-66
2022/04/15 04:58:36;;;;;;;10.32;7.65;;;;;;;;;;5049884;28;20127;-66
2022/04/15 05:01:03;;;;;;;12.75;7.32;;;;;;;;;;5050769;28;20033;-66
2022/04/15 05:03:29;;;;;;;11.93;7.43;;;;;;;;;;5052088;28;20048;-66
2022/04/15 05:05:55;;;;;;;12.23;7.53;;;;;;;;;;5052136;28;20037;-66
2022/04/15 05:08:21;;;;;;;14.05;7.72;;;;;;;;;;5085828;28;20122;-66
2022/04/15 05:10:47;;;;;;;10.35;7.55;;;;;;;;;;5054163;28;20082;-66
2022/04/15 05:13:13;;;;;;;12.55;7.50;;;;;;;;;;5054804;28;20037;-66
2022/04/15 05:15:39;;;;;;;11.75;7.30;;;;;;;;;;5052881;28;20037;-66
2022/04/15 05:18:05;;;;;;;8.90;7.00;;;;;;;;;;5053174;28;20128;-66
2022/04/15 05:20:32;;;;;;;12.07;8.02;;;;;;;;;;5086081;28;20547;-66
2022/04/15 05:22:59;;;;;;;11.40;7.25;;;;;;;;;;5052455;28;20060;-66
2022/04/15 05:25:25;;;;;;;10.18;7.20;;;;;;;;;;5052296;28;20059;-66
2022/04/15 05:27:52;;;;;;;10.38;7.53;;;;;;;;;;5053939;28;20126;-66
2022/04/15 05:30:18;;;;;;;11.25;7.22;;;;;;;;;;5052396;28;20083;-66
2022/04/15 05:32:44;;;;;;;11.20;7.45;;;;;;;;;;5085816;28;20047;-66
2022/04/15 05:35:11;;;;;;;10.60;8.20;;;;;;;;;;5051560;28;20041;-66
2022/04/15 05:37:37;;;;;;;10.43;8.10;;;;;;;;;;5052271;28;20048;-66
2022/04/15 05:40:03;;;;;;;8.93;7.38;;;;;;;;;;5052185;28;20048;-66
2022/04/15 05:42:29;;;;;;;10.25;7.45;;;;;;;;;;5053341;28;20049;-66
2022/04/15 05:44:55;;;;;;;10.90;7.10;;;;;;;;;;5053694;28;20048;-66
2022/04/15 05:47:21;;;;;;;10.35;7.07;;;;;;;;;;5051571;28;20052;-66
2022/04/15 05:49:47;;;;;;;10.10;7.00;;;;;;;;;;5053250;28;20119;-66
2022/04/15 05:52:14;;;;;;;9.70;7.10;;;;;;;;;;5053609;28;20052;-67
2022/04/15 05:54:40;;;;;;;10.43;6.97;;;;;;;;;;5052070;28;20079;-66
2022/04/15 05:57:06;;;;;;;10.57;7.28;;;;;;;;;;5052380;28;20108;-66
2022/04/15 05:59:32;;;;;;;10.75;7.32;;;;;;;;;;5051535;28;20045;-66
2022/04/15 06:01:58;;;;;;;11.00;7.05;;;;;;;;;;5050973;28;20049;-66
2022/04/15 06:04:24;;;;;;;11.68;7.07;;;;;;;;;;5053032;28;20045;-66
2022/04/15 06:06:50;;;;;;;10.90;7.57;;;;;;;;;;5045845;28;20543;-66
2022/04/15 06:09:16;;;;;;;10.50;7.57;;;;;;;;;;5064309;28;20056;-66
2022/04/15 06:11:43;;;;;;;12.68;8.65;;;;;;;;;;5049689;28;20037;-66
2022/04/15 06:14:09;;;;;;;9.52;7.82;;;;;;;;;;5049171;28;20049;-66
2022/04/15 06:16:37;;;;;;;14.25;8.75;;;;;;;;;;5049557;28;20049;-66
2022/04/15 06:19:06;;;;;;;11.88;7.93;;;;;;;;;;5049856;28;20036;-66
2022/04/15 06:21:33;;;;;;;14.52;8.68;;;;;;;;;;5048043;28;20634;-66
2022/04/15 06:23:59;;;;;;;11.75;8.05;;;;;;;;;;5051152;28;20037;-66
2022/04/15 06:26:25;;;;;;;13.88;8.30;;;;;;;;;;5052582;28;20120;-66
2022/04/15 06:28:51;;;;;;;15.35;8.48;;;;;;;;;;5016381;28;20124;-66
2022/04/15 06:31:17;;;;;;;12.13;8.48;;;;;;;;;;5065179;28;20049;-66
2022/04/15 06:33:44;;;;;;;13.88;8.60;;;;;;;;;;5049350;28;20441;-66
2022/04/15 06:36:10;;;;;;;11.02;8.25;;;;;;;;;;5050720;28;20037;-66
2022/04/15 06:38:36;;;;;;;13.02;8.85;;;;;;;;;;5050220;28;20055;-66
2022/04/15 06:41:02;;;;;;;10.38;8.07;;;;;;;;;;5062456;28;20043;-65
2022/04/15 06:43:28;;;;;;;8.40;7.22;;;;;;;;;;5050742;28;20049;-66
2022/04/15 06:45:54;;;;;;;12.13;7.93;;;;;;;;;;5051119;28;20037;-66
2022/04/15 06:48:20;;;;;;;8.55;7.20;;;;;;;;;;5050724;28;20048;-66
2022/04/15 06:50:46;;;;;;;9.50;6.72;;;;;;;;;;5051543;28;20136;-65
2022/04/15 06:53:12;;;;;;;10.27;6.80;;;;;;;;;;5050710;28;20052;-66
2022/04/15 06:55:38;;;;;;;8.55;6.07;;;;;;;;;;5052474;28;20049;-66
2022/04/15 06:58:05;;;;;;;8.45;6.40;;;;;;;;;;5051861;28;20072;-66
2022/04/15 07:00:31;;;;;;;8.23;5.78;;;;;;;;;;5052481;28;20044;-66
2022/04/15 07:02:57;;;;;;;7.30;5.63;;;;;;;;;;5050459;28;20083;-66
2022/04/15 07:05:25;;;;;;;7.40;5.75;;;;;;;;;;5049331;28;20080;-66
2022/04/15 07:07:51;;;;;;;9.75;5.05;;;;;;;;;;5046280;28;20484;-66
2022/04/15 07:10:18;;;;;;;7.40;4.78;;;;;;;;;;5045043;28;20524;-66
2022/04/15 07:12:44;;;;;;;7.30;4.78;;;;;;;;;;5049016;28;20353;-66
2022/04/15 07:15:10;;;;;;;7.10;3.63;;;;;;;;;;5048877;28;20254;-66
2022/04/15 07:17:36;;;;;;;4.88;4.18;;;;;;;;;;5048288;28;20157;-66
2022/04/15 07:20:02;;;;;;;4.22;3.20;;;;;;;;;;5050629;28;20134;-66
2022/04/15 07:22:28;;;;;;;4.07;3.47;;;;;;;;;;5048571;28;20404;-66
2022/04/15 07:24:54;;;;;;;3.95;3.38;;;;;;;;;;5034320;28;20405;-66
2022/04/15 07:27:20;;;;;;;4.40;3.30;;;;;;;;;;5046281;28;20071;-66
2022/04/15 07:29:47;;;;;;;6.35;3.85;;;;;;;;;;5063570;28;20048;-66
2022/04/15 07:32:19;;;;;;;4.63;4.10;;;;;;;;;;5033520;28;20047;-66
2022/04/15 07:34:46;;;;;;;5.88;4.35;;;;;;;;;;5034116;28;20033;-66
2022/04/15 07:37:12;;;;;;;5.95;4.03;;;;;;;;;;5045446;28;20107;-66
2022/04/15 07:39:38;;;;;;;7.13;4.50;;;;;;;;;;5050641;28;20091;-66
2022/04/15 07:42:05;;;;;;;5.75;4.28;;;;;;;;;;5050752;28;20041;-67
2022/04/15 07:44:31;;;;;;;6.35;4.47;;;;;;;;;;5050537;28;20053;-66
2022/04/15 07:46:57;;;;;;;8.38;5.18;;;;;;;;;;5050084;28;20417;-66
2022/04/15 07:49:23;;;;;;;5.93;4.35;;;;;;;;;;5050191;28;20044;-66
2022/04/15 07:51:49;;;;;;;7.28;4.97;;;;;;;;;;5048066;28;20049;-66
2022/04/15 07:54:16;;;;;;;5.38;4.40;;;;;;;;;;5049566;28;20052;-66
2022/04/15 07:56:42;;;;;;;6.97;4.22;;;;;;;;;;5046785;28;20179;-66
2022/04/15 07:59:08;;;;;;;5.60;4.40;;;;;;;;;;5046683;28;20135;-66
2022/04/15 08:01:34;;;;;;;7.22;4.07;;;;;;;;;;5049383;28;20131;-66
2022/04/15 08:04:01;;;;;;;6.22;4.28;;;;;;;;;;5050872;28;20052;-66
2022/04/15 08:06:30;;;;;;;4.05;3.47;;;;;;;;;;5049047;28;20041;-67
2022/04/15 08:08:57;;;;;;;4.30;3.65;;;;;;;;;;5050851;28;20104;-66
2022/04/15 08:11:24;;;;;;;6.25;3.85;;;;;;;;;;5049307;28;20066;-66
2022/04/15 08:13:50;;;;;;;4.32;3.53;;;;;;;;;;5048942;28;20048;-66
2022/04/15 08:16:16;;;;;;;5.53;3.97;;;;;;;;;;5048899;28;20084;-66
2022/04/15 08:18:43;;;;;;;5.00;3.90;;;;;;;;;;5050080;28;20036;-66
2022/04/15 08:21:09;;;;;;;5.13;3.65;;;;;;;;;;5048689;28;20062;-66
2022/04/15 08:23:36;;;;;;;5.97;3.83;;;;;;;;;;5049909;28;20542;-66
2022/04/15 08:26:02;;;;;;;4.97;3.53;;;;;;;;;;5046440;28;20548;-66
2022/04/15 08:28:28;;;;;;;4.88;3.55;;;;;;;;;;5049128;28;20508;-66
2022/04/15 08:30:54;;;;;;;6.88;3.70;;;;;;;;;;5048584;28;20041;-66
2022/04/15 08:33:21;;;;;;;8.30;3.20;;;;;;;;;;5047903;28;20045;-66
2022/04/15 08:35:47;;;;;;;6.95;4.15;;;;;;;;;;5048774;28;20045;-66
2022/04/15 08:38:14;;;;;;;4.10;3.40;;;;;;;;;;5051684;28;20496;-66
2022/04/15 08:40:43;;;;;;;5.60;4.07;;;;;;;;;;5053702;28;20068;-66
2022/04/15 08:43:10;;;;;;;5.32;4.43;;;;;;;;;;5035692;28;20493;-66
2022/04/15 08:45:40;;;;;;;8.10;4.30;;;;;;;;;;5051304;28;20152;-66
2022/04/15 08:48:06;;;;;;;5.60;3.90;;;;;;;;;;5050962;28;20064;-66
2022/04/15 08:50:32;;;;;;;9.00;4.70;;;;;;;;;;5055107;28;20075;-65
2022/04/15 08:52:59;;;;;;;7.70;4.47;;;;;;;;;;5053158;28;20045;-66
2022/04/15 08:55:27;;;;;;;9.10;5.80;;;;;;;;;;5052404;28;20072;-66
2022/04/15 08:57:54;;;;;;;6.72;5.22;;;;;;;;;;5049902;28;20083;-66
2022/04/15 09:00:20;;;;;;;10.32;6.63;;;;;;;;;;5053207;28;20057;-66
2022/04/15 09:02:47;;;;;;;11.55;6.57;;;;;;;;;;5053824;28;20037;-66
2022/04/15 09:05:14;;;;;;;12.05;7.18;;;;;;;;;;5085922;28;20106;-65
2022/04/15 09:07:40;;;;;;;8.60;6.82;;;;;;;;;;5058769;28;20489;-66
2022/04/15 09:10:07;;;;;;;12.65;7.25;;;;;;;;;;5053497;28;20087;-65
2022/04/15 09:12:37;;;;;;;12.75;7.65;;;;;;;;;;5047697;28;20060;-66
2022/04/15 09:15:06;;;;;;;12.30;7.72;;;;;;;;;;5050083;28;20056;-66
2022/04/15 09:17:34;;;;;;;14.07;7.97;;;;;;;;;;5056651;28;20052;-66
2022/04/15 09:20:01;;;;;;;11.65;7.45;;;;;;;;;;5055114;28;20473;-65
2022/04/15 09:22:27;;;;;;;12.93;7.50;;;;;;;;;;5034797;28;20041;-66
2022/04/15 09:24:53;;;;;;;10.85;7.60;;;;;;;;;;5058481;28;20049;-65
2022/04/15 09:27:25;;;;;;;13.38;7.65;;;;;;;;;;5053543;28;20072;-66
2022/04/15 09:29:54;;;;;;;12.73;8.48;;;;;;;;;;5051677;28;20032;-66
2022/04/15 09:32:20;;;;;;;11.60;7.40;;;;;;;;;;5047412;28;20120;-66
2022/04/15 09:34:52;;;;;;;13.23;8.23;;;;;;;;;;5053230;28;20037;-67
2022/04/15 09:37:19;;;;;;;12.82;7.80;;;;;;;;;;5050982;28;20045;-66
2022/04/15 09:40:07;;;;;;;9.98;7.40;;;;;;;;;;5045337;28;20044;-66
2022/04/15 09:42:37;;;;;;;12.55;7.80;;;;;;;;;;5051172;28;20049;-66
2022/04/15 09:45:15;;;;;;;13.48;8.30;;;;;;;;;;5051998;28;20037;-66
2022/04/15 09:47:42;;;;;;;13.20;8.23;;;;;;;;;;5045146;28;20497;-66
2022/04/15 09:50:19;;;;;;;13.73;8.13;;;;;;;;;;5048626;28;20053;-66
2022/04/15 09:52:45;;;;;;;10.90;7.68;;;;;;;;;;5052940;28;20132;-66
2022/04/15 09:55:11;;;;;;;12.88;8.15;;;;;;;;;;5049699;28;20041;-66
2022/04/15 09:57:38;;;;;;;12.98;8.50;;;;;;;;;;5051370;28;20041;-66
2022/04/15 10:00:05;;;;;;;15.32;8.07;;;;;;;;;;5052920;28;20037;-66
2022/04/15 10:02:33;;;;;;;14.63;8.52;;;;;;;;;;5050952;28;20047;-66
2022/04/15 10:05:00;;;;;;;17.08;9.15;;;;;;;;;;5051390;28;20500;-65
2022/04/15 10:07:26;;;;;;;13.23;8.00;;;;;;;;;;5063593;28;20056;-65
2022/04/15 10:09:54;;;;;;;12.90;8.38;;;;;;;;;;5053910;28;20041;-66
2022/04/15 10:12:20;;;;;;;13.85;8.80;;;;;;;;;;5047579;28;20428;-66
2022/04/15 10:14:46;;;;;;;14.60;8.65;;;;;;;;;;5052664;28;20041;-66
2022/04/15 10:17:13;;;;;;;11.45;7.63;;;;;;;;;;5050096;28;20049;-66
2022/04/15 10:19:40;;;;;;;11.13;8.02;;;;;;;;;;5080649;28;20049;-66
2022/04/15 10:22:07;;;;;;;14.32;8.88;;;;;;;;;;5049605;28;20053;-66
2022/04/15 10:24:33;;;;;;;15.90;8.45;;;;;;;;;;5050260;28;20045;-66
2022/04/15 10:27:00;;;;;;;14.52;9.05;;;;;;;;;;5048833;28;20045;-66
2022/04/15 10:29:26;;;;;;;13.75;8.20;;;;;;;;;;5050748;28;20032;-67
2022/04/15 10:31:52;;;;;;;15.10;8.43;;;;;;;;;;5049442;28;20041;-66
2022/04/15 10:34:19;;;;;;;12.98;8.50;;;;;;;;;;5053277;28;20052;-67
2022/04/15 10:36:46;;;;;;;12.90;8.32;;;;;;;;;;5047793;28;20048;-67
2022/04/15 10:39:14;;;;;;;12.18;7.53;;;;;;;;;;5044809;28;20042;-68
2022/04/15 10:41:44;;;;;;;12.23;7.47;;;;;;;;;;5048163;28;20052;-67
2022/04/15 10:44:11;;;;;;;14.30;8.57;;;;;;;;;;5055363;28;20052;-68
2022/04/15 10:46:38;;;;;;;10.73;7.47;;;;;;;;;;5047656;28;20369;-67
2022/04/15 10:49:20;;;;;;;13.10;8.43;;;;;;;;;;5049397;28;20421;-67
2022/04/15 10:51:46;;;;;;;12.25;8.35;;;;;;;;;;5043258;28;20508;-67
2022/04/15 10:54:31;;;;;;;10.27;7.55;;;;;;;;;;5047887;28;20131;-67
2022/04/15 10:57:02;;;;;;;13.93;8.30;;;;;;;;;;5049227;28;20059;-68
2022/04/15 11:02:16;;;;;;;13.60;7.25;;;;;;;;;;5050462;28;20448;-68
2022/04/15 11:04:47;;;;;;;9.02;6.40;;;;;;;;;;5051129;28;20047;-68
2022/04/15 11:07:17;;;;;;;10.52;6.13;;;;;;;;;;5049313;28;20044;-67
2022/04/15 11:09:44;;;;;;;11.93;6.90;;;;;;;;;;5050574;28;20048;-67
2022/04/15 11:12:11;;;;;;;9.40;6.03;;;;;;;;;;5043267;28;20043;-68
2022/04/15 11:14:38;;;;;;;9.68;6.05;;;;;;;;;;5015482;28;20578;-68
2022/04/15 11:17:09;;;;;;;11.75;6.80;;;;;;;;;;5045883;28;20055;-68
2022/04/15 11:19:36;;;;;;;10.88;6.43;;;;;;;;;;5050251;28;20058;-67
2022/04/15 11:22:02;;;;;;;15.65;7.85;;;;;;;;;;5050260;28;20131;-67
2022/04/15 11:24:33;;;;;;;11.80;6.22;;;;;;;;;;5049754;28;20492;-69
2022/04/15 11:27:04;;;;;;;9.15;6.57;;;;;;;;;;5050051;28;20080;-68
2022/04/15 11:29:31;;;;;;;13.05;6.63;;;;;;;;;;5050759;28;20129;-68
2022/04/15 11:32:07;;;;;;;10.40;6.50;;;;;;;;;;5047424;28;20095;-67
2022/04/15 11:34:34;;;;;;;10.57;6.25;;;;;;;;;;5052570;28;20041;-68
2022/04/15 11:37:04;;;;;;;8.27;5.70;;;;;;;;;;5047042;28;20056;-68
2022/04/15 11:39:35;;;;;;;9.38;5.95;;;;;;;;;;5048368;28;20072;-68
2022/04/15 11:42:01;;;;;;;9.93;5.28;;;;;;;;;;5031965;28;20080;-67
2022/04/15 11:44:31;;;;;;;9.27;6.25;;;;;;;;;;5053816;28;20048;-67
2022/04/15 11:47:16;;;;;;;8.80;5.38;;;;;;;;;;5048934;28;20049;-68
2022/04/15 11:49:43;;;;;;;7.93;5.55;;;;;;;;;;5047285;28;20538;-67
2022/04/15 11:52:09;;;;;;;10.98;5.35;;;;;;;;;;5049761;28;20064;-67
2022/04/15 11:54:38;;;;;;;10.48;5.60;;;;;;;;;;5047231;28;20429;-67
2022/04/15 11:57:05;;;;;;;9.73;5.35;;;;;;;;;;5049573;28;20091;-67
2022/04/15 11:59:41;;;;;;;8.27;5.47;;;;;;;;;;5049336;28;20140;-66
2022/04/15 12:02:07;;;;;;;7.25;5.20;;;;;;;;;;5047420;28;20509;-67
2022/04/15 12:04:34;;;;;;;10.52;5.13;;;;;;;;;;5046996;28;20140;-66
2022/04/15 12:07:00;;;;;;;6.90;4.38;;;;;;;;;;5046201;28;20095;-67
2022/04/15 12:09:26;;;;;;;8.30;4.68;;;;;;;;;;5049162;28;20056;-67
2022/04/15 12:11:53;;;;;;;6.95;5.05;;;;;;;;;;5048593;28;20036;-67
2022/04/15 12:14:19;;;;;;;7.68;5.00;;;;;;;;;;5048099;28;20053;-67
2022/04/15 12:16:47;;;;;;;7.90;4.80;;;;;;;;;;5046879;28;20049;-67
2022/04/15 12:19:13;;;;;;;9.05;5.88;;;;;;;;;;5048553;28;20057;-67
2022/04/15 12:21:39;;;;;;;8.98;5.15;;;;;;;;;;5047383;28;20085;-67
2022/04/15 12:24:20;;;;;;;8.57;5.40;;;;;;;;;;5045105;28;20494;-67
2022/04/15 12:26:50;;;;;;;7.20;4.95;;;;;;;;;;5046960;28;20131;-68
2022/04/15 12:32:22;;;;;;;10.35;4.80;;;;;;;;;;5043734;28;20059;-68
2022/04/15 12:34:49;;;;;;;7.43;4.70;;;;;;;;;;5048994;28;20052;-67
2022/04/15 12:37:33;;;;;;;8.55;5.15;;;;;;;;;;5043859;28;20049;-68
2022/04/15 12:40:00;;;;;;;6.07;4.07;;;;;;;;;;5046525;28;20060;-68
2022/04/15 12:42:30;;;;;;;7.35;4.22;;;;;;;;;;5046106;28;20051;-68
2022/04/15 12:44:56;;;;;;;8.00;4.78;;;;;;;;;;5045995;28;20084;-67
2022/04/15 12:47:26;;;;;;;6.40;4.43;;;;;;;;;;5045443;28;20077;-67
2022/04/15 12:49:52;;;;;;;6.40;4.38;;;;;;;;;;5058329;28;20048;-67
2022/04/15 12:52:19;;;;;;;7.20;4.80;;;;;;;;;;5047160;28;20568;-68
2022/04/15 12:55:14;;;;;;;8.73;4.90;;;;;;;;;;5030112;28;20068;-67
2022/04/15 12:57:41;;;;;;;9.07;4.93;;;;;;;;;;5037280;28;20503;-68
2022/04/15 13:00:08;;;;;;;10.25;5.35;;;;;;;;;;5047646;28;20053;-68
2022/04/15 13:02:34;;;;;;;6.70;4.90;;;;;;;;;;5044774;28;20174;-68
2022/04/15 13:05:01;;;;;;;7.55;4.43;;;;;;;;;;5044929;28;20045;-68
2022/04/15 13:07:27;;;;;;;7.05;4.95;;;;;;;;;;5048468;28;20099;-67
2022/04/15 13:09:53;;;;;;;6.22;4.78;;;;;;;;;;5047406;28;20140;-68
2022/04/15 13:12:19;;;;;;;9.05;4.78;;;;;;;;;;5035799;28;20041;-68
2022/04/15 13:14:46;;;;;;;7.68;5.10;;;;;;;;;;5070055;28;20456;-68
2022/04/15 13:17:14;;;;;;;6.80;4.82;;;;;;;;;;5044326;28;20179;-68
2022/04/15 13:19:41;;;;;;;10.88;5.07;;;;;;;;;;5042571;28;20044;-68
2022/04/15 13:22:08;;;;;;;8.15;4.95;;;;;;;;;;5042121;28;20061;-68
2022/04/15 13:24:34;;;;;;;14.25;6.18;;;;;;;;;;5043846;28;20370;-69
2022/04/15 13:27:00;;;;;;;9.55;5.15;;;;;;;;;;5030161;28;20053;-68
2022/04/15 13:29:26;;;;;;;9.07;5.10;;;;;;;;;;5049989;28;20033;-68
2022/04/15 13:31:52;;;;;;;8.70;5.20;;;;;;;;;;5050209;28;20443;-67
2022/04/15 13:34:19;;;;;;;6.35;4.82;;;;;;;;;;5052418;28;20047;-68
2022/04/15 13:36:46;;;;;;;10.98;5.82;;;;;;;;;;5050675;28;20055;-67
2022/04/15 13:39:12;;;;;;;10.82;5.68;;;;;;;;;;5050573;28;20032;-69
2022/04/15 13:41:38;;;;;;;6.93;5.45;;;;;;;;;;5048817;28;20044;-67
2022/04/15 13:44:04;;;;;;;7.80;5.50;;;;;;;;;;5051173;28;20048;-67
2022/04/15 13:46:30;;;;;;;10.43;5.25;;;;;;;;;;5049774;28;20065;-67
2022/04/15 13:48:56;;;;;;;9.45;5.00;;;;;;;;;;5051193;28;20099;-67
2022/04/15 13:51:23;;;;;;;7.18;5.50;;;;;;;;;;5050643;28;20052;-67
2022/04/15 13:56:41;;;;;;;9.68;6.25;;;;;;;;;;5051821;28;20182;-67
2022/04/15 13:59:08;;;;;;;9.60;5.60;;;;;;;;;;5050192;28;20076;-69
2022/04/15 14:01:36;;;;;;;9.85;5.97;;;;;;;;;;5049836;28;20116;-68
2022/04/15 14:04:06;;;;;;;8.07;5.50;;;;;;;;;;5053792;28;20511;-69
2022/04/15 14:06:33;;;;;;;10.38;5.57;;;;;;;;;;5044750;28;20461;-69
2022/04/15 14:08:59;;;;;;;9.98;5.40;;;;;;;;;;5049295;28;20041;-68
2022/04/15 14:11:26;;;;;;;9.63;5.88;;;;;;;;;;5048381;28;20092;-70
2022/04/15 14:13:52;;;;;;;7.72;4.78;;;;;;;;;;5048918;28;20048;-70
2022/04/15 14:16:18;;;;;;;8.38;5.30;;;;;;;;;;5048403;28;20080;-69
2022/04/15 14:18:44;;;;;;;8.50;4.82;;;;;;;;;;5049483;28;20465;-69
2022/04/15 14:21:11;;;;;;;9.38;5.72;;;;;;;;;;5050124;28;20033;-69
2022/04/15 14:23:37;;;;;;;6.38;4.57;;;;;;;;;;5049152;28;20515;-69
2022/04/15 14:26:04;;;;;;;9.05;5.32;;;;;;;;;;5049539;28;20025;-69
2022/04/15 14:28:30;;;;;;;7.43;4.53;;;;;;;;;;5054249;28;20094;-70
2022/04/15 14:30:59;;;;;;;9.43;5.55;;;;;;;;;;5048926;28;20048;-70
2022/04/15 14:33:25;;;;;;;7.10;4.85;;;;;;;;;;5047753;28;20041;-58
2022/04/15 14:35:51;;;;;;;8.63;4.70;;;;;;;;;;5049343;28;20131;-69
2022/04/15 14:38:17;;;;;;;8.00;5.05;;;;;;;;;;5048736;28;20032;-69
2022/04/15 14:40:43;;;;;;;8.13;5.70;;;;;;;;;;5049628;28;20051;-69